Terminal Aerodrome Forecast
Issued by NWS Los Angeles, CA

Home | Current Version | Previous Version | Text Only | Print | Product List | Glossary On
Versions: 1 2 3 4 5 6 7 8 9 10 11 12 13 14 15 16 17 18 19 20 21 22 23 24 25
000
FTUS46 KLOX 021401 AAA
TAFSMX
TAF AMD
KSMX 021401Z 0214/0312 00000KT 2SM BR OVC003
     FM021500 VRB03KT 3SM BR OVC004
     FM021700 31008KT P6SM FEW006
     FM022000 30016G25KT P6SM SKC
     FM030200 30010KT P6SM SCT007
     FM030400 31006KT P6SM OVC006=

USA.gov is the U.S. government's official web portal to all federal, state and local government web resources and services.